createdAt,value
2018-12-22T00:02:22.799Z,16.67
2018-12-22T00:04:54.271Z,17.37
2018-12-22T00:07:26.982Z,15.93
2018-12-22T00:09:57.696Z,15.68
2018-12-22T00:12:28.438Z,15.45
2018-12-22T00:14:59.092Z,15.35
2018-12-22T00:17:29.691Z,14.33
2018-12-22T00:20:01.290Z,15.03
2018-12-22T00:22:35.300Z,16.62
2018-12-22T00:25:07.279Z,15.48
2018-12-22T00:27:38.873Z,15.88
2018-12-22T00:30:18.763Z,15.10
2018-12-22T00:33:17.645Z,14.68
2018-12-22T00:35:56.910Z,15.88
2018-12-22T00:38:29.070Z,15.58
2018-12-22T00:40:59.674Z,15.85
2018-12-22T00:43:31.465Z,14.68
2018-12-22T00:46:04.642Z,14.25
2018-12-22T00:48:35.433Z,14.73
2018-12-22T00:51:09.188Z,14.43
2018-12-22T00:53:40.123Z,14.58
2018-12-22T00:56:10.704Z,14.33
2018-12-22T00:58:41.354Z,13.62
2018-12-22T01:01:12.883Z,14.60
2018-12-22T01:03:43.620Z,15.83
2018-12-22T01:06:14.287Z,14.83
2018-12-22T01:08:45.067Z,14.23
2018-12-22T01:11:15.853Z,15.00
2018-12-22T01:13:46.703Z,14.95
2018-12-22T01:16:17.347Z,14.35
2018-12-22T01:18:48.092Z,15.65
2018-12-22T01:21:19.049Z,14.07
2018-12-22T01:23:49.701Z,14.93
2018-12-22T01:26:20.299Z,14.85
2018-12-22T01:28:51.068Z,15.53
2018-12-22T01:31:21.750Z,12.53
2018-12-22T01:33:52.457Z,13.20
2018-12-22T01:36:23.094Z,12.30
2018-12-22T01:38:53.738Z,13.18
2018-12-22T01:41:29.509Z,12.18
2018-12-22T01:44:07.935Z,12.40
2018-12-22T01:46:46.024Z,11.88
2018-12-22T01:49:18.518Z,11.38
2018-12-22T01:51:49.942Z,11.60
2018-12-22T01:54:22.002Z,10.98
2018-12-22T01:56:52.919Z,10.35
2018-12-22T01:59:23.538Z,10.65
2018-12-22T02:01:54.207Z,12.78
2018-12-22T02:04:28.211Z,12.23
2018-12-22T02:06:58.880Z,12.85
2018-12-22T02:09:29.470Z,12.37
2018-12-22T02:12:00.080Z,14.03
2018-12-22T02:14:35.615Z,12.68
2018-12-22T02:17:06.194Z,12.90
2018-12-22T02:19:37.233Z,13.72
2018-12-22T02:22:08.121Z,12.90
2018-12-22T02:24:40.645Z,9.80
2018-12-22T02:27:11.228Z,9.35
2018-12-22T02:29:41.879Z,11.05
2018-12-22T02:32:12.527Z,10.53
2018-12-22T02:34:43.118Z,10.82
2018-12-22T02:37:13.834Z,13.53
2018-12-22T02:39:44.443Z,13.50
2018-12-22T02:42:15.137Z,13.38
2018-12-22T02:44:45.726Z,11.10
2018-12-22T02:47:16.323Z,11.60
2018-12-22T02:49:46.909Z,12.13
2018-12-22T02:52:17.551Z,13.00
2018-12-22T02:54:48.093Z,13.95
2018-12-22T02:57:19.108Z,12.88
2018-12-22T02:59:49.651Z,14.43
2018-12-22T03:02:20.781Z,14.15
2018-12-22T03:04:51.527Z,13.62
2018-12-22T03:07:22.684Z,15.20
2018-12-22T03:09:53.514Z,18.17
2018-12-22T03:12:24.533Z,18.23
2018-12-22T03:14:55.169Z,16.85
2018-12-22T03:17:26.442Z,15.70
2018-12-22T03:19:57.125Z,14.93
2018-12-22T03:22:27.782Z,16.73
2018-12-22T03:24:58.437Z,18.17
2018-12-22T03:27:29.088Z,18.42
2018-12-22T03:29:59.668Z,18.07
2018-12-22T03:32:30.640Z,17.45
2018-12-22T03:35:02.948Z,17.62
2018-12-22T03:37:34.242Z,18.02
2018-12-22T03:40:06.202Z,18.17
2018-12-22T03:42:36.830Z,17.98
2018-12-22T03:45:07.720Z,15.68
2018-12-22T03:47:38.452Z,15.93
2018-12-22T03:50:09.043Z,15.85
2018-12-22T03:52:39.652Z,17.17
2018-12-22T03:55:10.262Z,17.45
2018-12-22T03:57:41.493Z,17.23
2018-12-22T04:00:12.246Z,17.85
2018-12-22T04:02:42.856Z,17.98
2018-12-22T04:05:13.455Z,19.57
2018-12-22T04:07:44.108Z,19.82
2018-12-22T04:10:14.719Z,19.48
2018-12-22T04:12:47.871Z,19.23
2018-12-22T04:15:19.546Z,19.37
2018-12-22T04:17:50.202Z,20.02
2018-12-22T04:20:22.761Z,19.32
2018-12-22T04:22:53.357Z,19.57
2018-12-22T04:25:24.211Z,19.35
2018-12-22T04:27:54.894Z,18.02
2018-12-22T04:30:27.407Z,18.50
2018-12-22T04:32:58.036Z,18.60
2018-12-22T04:35:29.052Z,18.55
2018-12-22T04:37:59.673Z,18.27
2018-12-22T04:40:31.033Z,17.87
2018-12-22T04:43:05.218Z,17.50
2018-12-22T04:45:35.918Z,18.10
2018-12-22T04:48:06.469Z,17.95
2018-12-22T04:50:37.723Z,18.30
2018-12-22T04:53:09.366Z,17.80
2018-12-22T04:55:40.024Z,17.50
2018-12-22T04:58:10.607Z,16.95
2018-12-22T05:00:42.105Z,17.27
2018-12-22T05:03:12.841Z,17.67
2018-12-22T05:05:43.623Z,20.10
2018-12-22T05:08:14.527Z,19.65
2018-12-22T05:10:45.234Z,18.82
2018-12-22T05:13:15.830Z,18.30
2018-12-22T05:15:46.570Z,19.73
2018-12-22T05:18:17.226Z,17.45
2018-12-22T05:20:47.807Z,18.90
2018-12-22T05:23:18.684Z,19.12
2018-12-22T05:25:49.244Z,18.25
2018-12-22T05:28:19.864Z,17.35
2018-12-22T05:30:50.501Z,18.02
2018-12-22T05:33:21.167Z,21.30
2018-12-22T05:35:53.163Z,21.97
2018-12-22T05:38:23.885Z,18.42
2018-12-22T05:40:54.459Z,20.57
2018-12-22T05:43:25.175Z,19.07
2018-12-22T05:45:56.234Z,18.73
2018-12-22T05:48:26.793Z,19.65
2018-12-22T05:50:57.839Z,18.77
2018-12-22T05:53:28.636Z,19.85
2018-12-22T05:55:59.354Z,18.30
2018-12-22T05:58:29.933Z,19.05
2018-12-22T06:01:00.618Z,18.15
2018-12-22T06:03:34.911Z,18.40
2018-12-22T06:06:05.517Z,17.85
2018-12-22T06:08:36.433Z,18.85
2018-12-22T06:11:07.170Z,18.10
2018-12-22T06:13:37.817Z,17.67
2018-12-22T06:16:08.605Z,17.32
2018-12-22T06:18:39.565Z,17.42
2018-12-22T06:21:10.763Z,18.15
2018-12-22T06:23:41.371Z,18.30
2018-12-22T06:26:12.074Z,17.35
2018-12-22T06:28:42.694Z,16.42
2018-12-22T06:31:13.599Z,16.12
2018-12-22T06:33:44.316Z,16.70
2018-12-22T06:36:14.996Z,17.23
2018-12-22T06:38:46.226Z,17.32
2018-12-22T06:41:17.568Z,16.42
2018-12-22T06:43:48.216Z,17.60
2018-12-22T06:46:25.469Z,16.75
2018-12-22T06:48:56.114Z,17.12
2018-12-22T06:51:26.713Z,17.40
2018-12-22T06:53:57.314Z,17.15
2018-12-22T06:56:27.938Z,17.87
2018-12-22T06:58:58.606Z,17.45
2018-12-22T07:01:30.294Z,17.02
2018-12-22T07:04:03.888Z,15.70
2018-12-22T07:06:34.496Z,16.50
2018-12-22T07:09:07.745Z,16.12
2018-12-22T07:11:38.348Z,16.23
2018-12-22T07:14:09.540Z,17.07
2018-12-22T07:16:40.112Z,17.67
2018-12-22T07:19:11.464Z,17.02
2018-12-22T07:21:42.060Z,17.75
2018-12-22T07:24:13.247Z,18.90
2018-12-22T07:26:43.843Z,18.42
2018-12-22T07:29:14.526Z,16.85
2018-12-22T07:31:46.192Z,17.25
2018-12-22T07:34:16.825Z,17.92
2018-12-22T07:36:47.443Z,18.17
2018-12-22T07:39:18.488Z,18.62
2018-12-22T07:41:49.142Z,17.73
2018-12-22T07:44:20.142Z,21.57
2018-12-22T07:46:50.722Z,19.10
2018-12-22T07:49:23.486Z,18.98
2018-12-22T07:51:54.162Z,19.12
2018-12-22T07:54:24.921Z,18.45
2018-12-22T07:56:56.260Z,19.70
2018-12-22T07:59:27.020Z,21.80
2018-12-22T08:01:57.772Z,23.83
2018-12-22T08:04:30.310Z,22.65
2018-12-22T08:07:01.009Z,20.55
2018-12-22T08:09:32.083Z,21.12
2018-12-22T08:12:04.683Z,21.02
2018-12-22T08:14:35.307Z,21.02
2018-12-22T08:17:05.879Z,20.68
2018-12-22T08:19:37.024Z,19.25
2018-12-22T08:22:08.651Z,18.98
2018-12-22T08:24:39.870Z,17.87
2018-12-22T08:27:10.447Z,14.13
2018-12-22T08:29:41.134Z,14.98
2018-12-22T08:32:11.717Z,13.80
2018-12-22T08:34:42.391Z,16.97
2018-12-22T08:37:13.903Z,17.73
2018-12-22T08:39:44.599Z,18.17
2018-12-22T08:42:15.294Z,19.45
2018-12-22T08:44:45.959Z,19.40
2018-12-22T08:47:16.686Z,18.32
2018-12-22T08:49:47.322Z,18.95
2018-12-22T08:52:17.973Z,19.98
2018-12-22T08:54:48.999Z,20.17
2018-12-22T08:57:19.617Z,19.85
2018-12-22T08:59:50.325Z,18.10
2018-12-22T09:02:21.023Z,17.65
2018-12-22T09:04:52.127Z,16.52
2018-12-22T09:07:22.869Z,15.95
2018-12-22T09:09:53.509Z,16.35
2018-12-22T09:12:24.376Z,15.83
2018-12-22T09:14:55.206Z,15.25
2018-12-22T09:17:25.885Z,16.75
2018-12-22T09:19:56.519Z,17.15
2018-12-22T09:22:27.847Z,16.35
2018-12-22T09:25:00.350Z,16.10
2018-12-22T09:27:34.960Z,16.70
2018-12-22T09:30:13.172Z,15.88
2018-12-22T09:32:43.845Z,15.15
2018-12-22T09:35:14.705Z,15.13
2018-12-22T09:37:45.317Z,15.45
2018-12-22T09:40:15.959Z,14.13
2018-12-22T09:42:46.579Z,11.78
2018-12-22T09:45:17.266Z,10.28
2018-12-22T09:47:48.331Z,23.80
2018-12-22T09:50:18.987Z,29.05
2018-12-22T09:52:49.567Z,21.50
2018-12-22T09:55:20.710Z,23.25
2018-12-22T09:57:51.419Z,30.23
2018-12-22T10:00:22.560Z,27.80
2018-12-22T10:02:53.162Z,19.30
2018-12-22T10:05:23.758Z,13.25
2018-12-22T10:07:54.406Z,11.18
2018-12-22T10:10:25.063Z,14.30
2018-12-22T10:12:55.691Z,13.13
2018-12-22T10:15:26.489Z,12.40
2018-12-22T10:17:57.168Z,9.85
2018-12-22T10:20:28.672Z,9.48
2018-12-22T10:22:59.512Z,9.03
2018-12-22T10:25:30.092Z,9.65
2018-12-22T10:28:00.743Z,9.43
2018-12-22T10:30:33.283Z,9.10
2018-12-22T10:33:06.756Z,8.73
2018-12-22T10:35:37.319Z,8.63
2018-12-22T10:38:23.133Z,8.48
2018-12-22T10:40:53.764Z,8.68
2018-12-22T10:43:24.451Z,8.60
2018-12-22T10:45:55.042Z,9.68
2018-12-22T10:48:25.996Z,9.65
2018-12-22T10:50:56.631Z,8.48
2018-12-22T10:53:28.020Z,7.28
2018-12-22T10:55:58.618Z,8.53
2018-12-22T10:58:29.214Z,8.03
2018-12-22T11:00:59.868Z,8.15
2018-12-22T11:03:32.096Z,9.35
2018-12-22T11:06:04.895Z,8.98
2018-12-22T11:08:35.759Z,9.55
2018-12-22T11:11:08.228Z,9.33
2018-12-22T11:13:38.758Z,9.48
2018-12-22T11:16:11.285Z,10.15
2018-12-22T11:18:41.990Z,10.50
2018-12-22T11:21:14.075Z,10.75
2018-12-22T11:23:45.087Z,9.48
2018-12-22T11:26:15.875Z,8.95
2018-12-22T11:28:46.439Z,8.60
2018-12-22T11:31:17.073Z,8.68
2018-12-22T11:33:47.653Z,8.28
2018-12-22T11:36:18.356Z,8.35
2018-12-22T11:38:48.962Z,8.43
2018-12-22T11:41:19.635Z,8.70
2018-12-22T11:43:50.243Z,12.15
2018-12-22T11:46:21.166Z,13.93
2018-12-22T11:49:56.561Z,10.75
2018-12-22T11:52:27.502Z,11.08
2018-12-22T11:54:58.082Z,8.95
2018-12-22T11:57:28.777Z,10.08
2018-12-22T11:59:59.481Z,10.72
2018-12-22T12:02:30.721Z,11.28
2018-12-22T12:05:03.744Z,10.88
2018-12-22T12:07:34.407Z,10.80
2018-12-22T12:10:10.364Z,9.68
2018-12-22T12:12:41.043Z,9.85
2018-12-22T12:15:18.166Z,8.83
2018-12-22T12:18:12.216Z,10.23
2018-12-22T12:20:42.897Z,9.48
2018-12-22T12:23:13.517Z,8.60
2018-12-22T12:25:44.119Z,8.13
2018-12-22T12:28:14.762Z,8.83
2018-12-22T12:30:45.376Z,8.48
2018-12-22T12:33:32.713Z,8.50
2018-12-22T12:36:03.368Z,7.85
2018-12-22T12:38:34.465Z,7.22
2018-12-22T12:41:05.124Z,7.22
2018-12-22T12:43:35.715Z,7.95
2018-12-22T12:46:06.586Z,7.67
2018-12-22T12:48:37.834Z,7.85
2018-12-22T12:51:08.607Z,8.23
2018-12-22T12:53:39.218Z,8.33
2018-12-22T12:56:11.197Z,8.28
2018-12-22T12:58:41.761Z,8.35
2018-12-22T13:01:12.701Z,8.63
2018-12-22T13:03:43.365Z,9.40
2018-12-22T13:06:13.997Z,9.20
2018-12-22T13:08:44.746Z,8.33
2018-12-22T13:11:15.430Z,8.25
2018-12-22T13:13:57.875Z,8.30
2018-12-22T13:16:28.519Z,8.40
2018-12-22T13:18:59.782Z,8.50
2018-12-22T13:21:31.159Z,8.08
2018-12-22T13:24:01.789Z,8.18
2018-12-22T13:26:36.802Z,8.03
2018-12-22T13:29:05.053Z,7.97
2018-12-22T13:31:35.766Z,8.60
2018-12-22T13:34:06.451Z,8.68
2018-12-22T13:36:37.121Z,9.30
2018-12-22T13:39:20.655Z,11.43
2018-12-22T13:41:51.460Z,10.65
2018-12-22T13:44:22.049Z,11.20
2018-12-22T13:46:52.701Z,16.35
2018-12-22T13:49:23.587Z,10.32
2018-12-22T13:51:54.203Z,8.53
2018-12-22T13:54:26.641Z,9.58
2018-12-22T13:56:58.116Z,9.78
2018-12-22T13:59:28.759Z,9.88
2018-12-22T14:02:03.380Z,10.08
2018-12-22T14:04:35.476Z,10.53
2018-12-22T14:07:08.279Z,8.75
2018-12-22T14:09:38.879Z,7.70
2018-12-22T14:12:09.482Z,7.33
2018-12-22T14:14:45.227Z,8.38
2018-12-22T14:17:31.475Z,8.20
2018-12-22T14:20:06.832Z,7.30
2018-12-22T14:22:37.698Z,6.12
2018-12-22T14:25:13.155Z,6.35
2018-12-22T14:27:43.739Z,5.05
2018-12-22T14:30:15.482Z,5.53
2018-12-22T14:32:46.233Z,6.00
2018-12-22T14:35:31.568Z,6.62
2018-12-22T14:38:02.232Z,6.30
2018-12-22T14:40:32.911Z,6.35
2018-12-22T14:43:04.169Z,6.08
2018-12-22T14:45:34.925Z,5.33
2018-12-22T14:48:05.746Z,5.60
2018-12-22T14:50:36.396Z,5.90
2018-12-22T14:53:07.047Z,5.87
2018-12-22T14:55:37.684Z,4.50
2018-12-22T14:58:21.132Z,3.58
2018-12-22T15:00:52.011Z,3.87
2018-12-22T15:03:23.666Z,4.28
2018-12-22T15:05:54.335Z,3.87
2018-12-22T15:08:26.091Z,3.58
2018-12-22T15:10:56.851Z,9.35
2018-12-22T15:13:27.468Z,4.60
2018-12-22T15:16:00.350Z,3.92
2018-12-22T15:18:30.944Z,3.22
2018-12-22T15:21:02.841Z,4.17
2018-12-22T15:23:33.441Z,4.22
2018-12-22T15:26:04.150Z,4.33
2018-12-22T15:28:34.796Z,5.72
2018-12-22T15:31:05.508Z,5.45
2018-12-22T15:33:36.116Z,4.92
2018-12-22T15:36:06.738Z,22.22
2018-12-22T15:38:37.627Z,19.82
2018-12-22T15:41:08.259Z,16.60
2018-12-22T15:43:38.990Z,29.30
2018-12-22T15:46:10.368Z,27.77
2018-12-22T15:48:41.100Z,14.30
2018-12-22T15:51:13.107Z,5.05
2018-12-22T15:53:43.733Z,5.65
2018-12-22T15:56:14.312Z,5.03
2018-12-22T15:58:45.203Z,28.05
2018-12-22T16:01:16.000Z,21.65
2018-12-22T16:03:48.750Z,13.50
2018-12-22T16:06:19.431Z,5.25
2018-12-22T16:08:50.031Z,6.47
2018-12-22T16:11:20.738Z,10.80
2018-12-22T16:13:51.426Z,9.83
2018-12-22T16:16:22.145Z,8.75
2018-12-22T16:18:52.912Z,5.15
2018-12-22T16:21:23.442Z,4.33
2018-12-22T16:23:54.082Z,4.85
2018-12-22T16:26:25.039Z,4.85
2018-12-22T16:29:05.495Z,4.78
2018-12-22T16:31:36.274Z,4.70
2018-12-22T16:34:08.132Z,4.62
2018-12-22T16:36:39.313Z,4.83
2018-12-22T16:39:10.229Z,5.55
2018-12-22T16:41:41.313Z,4.92
2018-12-22T16:44:15.644Z,5.62
2018-12-22T16:46:46.355Z,4.97
2018-12-22T16:49:17.083Z,5.20
2018-12-22T16:51:54.148Z,6.90
2018-12-22T16:54:41.799Z,10.45
2018-12-22T16:57:12.997Z,7.20
2018-12-22T16:59:44.628Z,8.63
2018-12-22T17:02:28.463Z,8.68
2018-12-22T17:05:02.782Z,10.15
2018-12-22T17:07:39.573Z,6.28
2018-12-22T17:10:14.343Z,7.58
2018-12-22T17:12:46.154Z,8.98
2018-12-22T17:15:22.196Z,9.03
2018-12-22T17:17:56.375Z,8.03
2018-12-22T17:20:32.962Z,7.65
2018-12-22T17:23:15.223Z,10.30
2018-12-22T17:25:52.956Z,10.50
2018-12-22T17:28:28.239Z,10.82
2018-12-22T17:30:56.377Z,10.15
2018-12-22T17:33:27.044Z,10.25
2018-12-22T17:35:58.438Z,12.63
2018-12-22T17:38:29.275Z,13.15
2018-12-22T17:41:01.150Z,19.55
2018-12-22T17:43:32.093Z,24.55
2018-12-22T17:46:02.678Z,16.45
2018-12-22T17:48:33.306Z,18.45
2018-12-22T17:51:04.764Z,15.93
2018-12-22T17:53:35.435Z,16.15
2018-12-22T17:56:06.261Z,16.32
2018-12-22T17:58:37.660Z,16.52
2018-12-22T18:01:08.266Z,14.73
2018-12-22T18:03:40.873Z,14.30
2018-12-22T18:06:12.179Z,14.68
2018-12-22T18:08:43.526Z,15.58
2018-12-22T18:11:14.156Z,19.20
2018-12-22T18:13:44.894Z,18.17
2018-12-22T18:16:15.502Z,21.65
2018-12-22T18:18:46.139Z,20.75
2018-12-22T18:21:16.832Z,20.90
2018-12-22T18:23:47.605Z,27.52
2018-12-22T18:26:19.379Z,27.17
2018-12-22T18:28:49.964Z,26.62
2018-12-22T18:31:20.566Z,27.30
2018-12-22T18:33:51.160Z,25.85
2018-12-22T18:36:23.488Z,24.82
2018-12-22T18:38:54.059Z,25.40
2018-12-22T18:41:24.657Z,22.50
2018-12-22T18:43:55.239Z,25.02
2018-12-22T18:46:26.286Z,28.50
2018-12-22T18:48:56.900Z,25.65
2018-12-22T18:51:27.633Z,28.65
2018-12-22T18:53:58.243Z,35.48
2018-12-22T18:56:35.428Z,34.78
2018-12-22T18:59:06.033Z,36.88
2018-12-22T19:01:37.354Z,36.53
2018-12-22T19:04:08.634Z,44.05
2018-12-22T19:06:39.190Z,26.65
2018-12-22T19:09:13.930Z,27.30
2018-12-22T19:11:44.567Z,34.33
2018-12-22T19:14:16.006Z,34.13
2018-12-22T19:16:46.789Z,39.27
2018-12-22T19:19:17.435Z,42.00
2018-12-22T19:21:48.549Z,47.50
2018-12-22T19:24:21.490Z,44.03
2018-12-22T19:26:52.132Z,48.00
2018-12-22T19:29:23.785Z,51.48
2018-12-22T19:31:54.654Z,53.83
2018-12-22T19:34:27.969Z,55.73
2018-12-22T19:37:00.517Z,55.00
2018-12-22T19:39:34.339Z,53.87
2018-12-22T19:42:04.963Z,63.60
2018-12-22T19:44:35.595Z,60.80
2018-12-22T19:47:06.515Z,58.73
2018-12-22T19:49:37.298Z,60.40
2018-12-22T19:52:07.919Z,50.95
2018-12-22T19:54:38.515Z,55.23
2018-12-22T19:57:09.878Z,52.20
2018-12-22T19:59:45.013Z,49.13
2018-12-22T20:02:20.575Z,68.85
2018-12-22T20:04:52.004Z,151.80
2018-12-22T20:07:26.336Z,93.82
2018-12-22T20:09:57.480Z,55.25
2018-12-22T20:12:30.115Z,58.98
2018-12-22T20:15:00.834Z,59.03
2018-12-22T20:17:31.431Z,58.38
2018-12-22T20:20:03.102Z,73.85
2018-12-22T20:22:34.746Z,55.77
2018-12-22T20:25:06.673Z,60.63
2018-12-22T20:27:40.495Z,61.18
2018-12-22T20:30:11.211Z,98.90
2018-12-22T20:32:41.942Z,75.05
2018-12-22T20:35:12.640Z,52.48
2018-12-22T20:37:43.458Z,61.35
2018-12-22T20:40:14.301Z,63.43
2018-12-22T20:42:54.263Z,62.63
2018-12-22T20:45:30.460Z,59.27
2018-12-22T20:48:01.435Z,58.25
2018-12-22T20:50:34.531Z,63.27
2018-12-22T20:53:06.329Z,66.60
2018-12-22T20:55:38.178Z,82.42
2018-12-22T20:58:19.578Z,82.70
2018-12-22T21:00:51.233Z,69.97
2018-12-22T21:03:22.359Z,64.07
2018-12-22T21:06:01.954Z,61.15
2018-12-22T21:08:32.670Z,59.83
2018-12-22T21:11:06.660Z,59.20
2018-12-22T21:13:39.090Z,64.75
2018-12-22T21:16:09.841Z,64.07
2018-12-22T21:18:40.482Z,57.43
2018-12-22T21:21:11.110Z,54.13
2018-12-22T21:23:42.807Z,50.73
2018-12-22T21:26:13.437Z,59.60
2018-12-22T21:28:44.039Z,66.22
2018-12-22T21:31:14.641Z,61.80
2018-12-22T21:33:45.352Z,60.90
2018-12-22T21:36:15.958Z,61.20
2018-12-22T21:38:46.546Z,115.35
2018-12-22T21:41:17.343Z,138.50
2018-12-22T21:43:48.570Z,166.88
2018-12-22T21:46:19.179Z,129.87
2018-12-22T21:48:49.844Z,148.17
2018-12-22T21:51:20.473Z,110.07
2018-12-22T21:53:53.370Z,127.23
2018-12-22T21:56:24.117Z,102.33
2018-12-22T21:58:58.338Z,88.87
2018-12-22T22:01:30.837Z,74.33
2018-12-22T22:04:01.474Z,58.60
2018-12-22T22:06:32.078Z,59.00
2018-12-22T22:09:02.685Z,55.43
2018-12-22T22:11:36.334Z,56.10
2018-12-22T22:14:07.017Z,53.37
2018-12-22T22:16:38.886Z,57.95
2018-12-22T22:19:10.079Z,53.10
2018-12-22T22:21:40.763Z,56.48
2018-12-22T22:24:11.442Z,53.35
2018-12-22T22:26:42.040Z,48.30
2018-12-22T22:29:14.996Z,49.67
2018-12-22T22:31:45.711Z,48.23
2018-12-22T22:34:16.308Z,48.97
2018-12-22T22:36:47.627Z,47.30
2018-12-22T22:39:18.778Z,46.50
2018-12-22T22:41:50.605Z,50.07
2018-12-22T22:44:21.301Z,48.70
2018-12-22T22:46:52.007Z,47.13
2018-12-22T22:49:23.277Z,44.77
2018-12-22T22:51:53.959Z,48.80
2018-12-22T22:54:25.190Z,45.83
2018-12-22T22:56:56.286Z,46.28
2018-12-22T22:59:26.869Z,46.53
2018-12-22T23:01:57.468Z,46.67
2018-12-22T23:04:28.055Z,46.43
2018-12-22T23:06:59.939Z,40.30
2018-12-22T23:09:30.708Z,39.27
2018-12-22T23:12:01.270Z,38.03
2018-12-22T23:14:31.903Z,41.47
2018-12-22T23:17:04.586Z,44.67
2018-12-22T23:19:35.207Z,49.73
2018-12-22T23:22:08.316Z,43.60
2018-12-22T23:25:04.064Z,43.83
2018-12-22T23:27:37.536Z,42.15
2018-12-22T23:30:10.550Z,45.63
2018-12-22T23:32:45.875Z,43.93
2018-12-22T23:35:16.659Z,43.97
2018-12-22T23:37:47.310Z,49.38
2018-12-22T23:40:18.043Z,45.37
2018-12-22T23:42:49.263Z,43.63
2018-12-22T23:45:19.875Z,40.77
2018-12-22T23:47:50.626Z,37.43
2018-12-22T23:50:21.931Z,34.57
2018-12-22T23:52:54.465Z,30.40
2018-12-22T23:55:25.163Z,29.40
2018-12-22T23:57:56.079Z,31.03
